Time;durP1;ratioP1;P1;durP2;ratioP2;P2;SDS_P1;SDS_P2;PMS_P1;PMS_P2;Temp;Humidity;BMP_temperature;BMP_pressure;BME280_temperature;BME280_humidity;BME280_pressure;Samples;Min_cycle;Max_cycle;Signal;HPM_P1;HPM_P2
2022/03/28 00:02:05;;;;;;;20.50;10.50;;;;;;;4.68;71.75;101392.97;3481983;83;98883;-87
2022/03/28 00:07:05;;;;;;;23.30;9.55;;;;;;;4.58;71.72;101396.78;3520583;82;98835;-87
2022/03/28 00:12:08;;;;;;;19.80;9.90;;;;;;;4.53;71.78;101376.47;3506972;82;98780;-87
2022/03/28 00:17:09;;;;;;;20.90;10.30;;;;;;;4.47;71.79;101373.64;3497378;82;97916;-88
2022/03/28 00:22:10;;;;;;;20.57;9.80;;;;;;;4.40;72.17;101373.84;3482332;83;98932;-87
2022/03/28 00:27:11;;;;;;;18.97;9.23;;;;;;;4.36;72.30;101366.06;3499328;83;98586;-87
2022/03/28 00:32:13;;;;;;;20.67;10.20;;;;;;;4.27;72.69;101359.75;3492482;83;98828;-87
2022/03/28 00:37:14;;;;;;;24.30;10.20;;;;;;;4.19;72.72;101356.41;3523687;82;98872;-87
2022/03/28 00:42:15;;;;;;;20.68;9.95;;;;;;;4.14;72.80;101349.18;3516962;82;98828;-87
2022/03/28 00:47:15;;;;;;;24.13;11.67;;;;;;;4.09;72.72;101338.98;3530654;82;98649;-87
2022/03/28 00:52:17;;;;;;;27.60;11.87;;;;;;;4.02;73.75;101335.88;3520716;82;98994;-87
2022/03/28 00:57:18;;;;;;;30.23;12.20;;;;;;;3.92;73.54;101322.52;3509284;82;98664;-88
2022/03/28 01:02:19;;;;;;;32.97;14.40;;;;;;;3.87;74.10;101313.92;3523004;82;99173;-87
2022/03/28 01:07:20;;;;;;;35.87;14.40;;;;;;;3.75;74.28;101290.55;3544281;82;98789;-86
2022/03/28 01:12:25;;;;;;;37.13;15.53;;;;;;;3.74;74.60;101294.94;3522357;81;98442;-87
2022/03/28 01:22:45;;;;;;;24.70;12.07;;;;;;;3.61;75.48;101280.85;3530150;82;99028;-87
2022/03/28 01:27:47;;;;;;;24.63;11.23;;;;;;;3.53;75.43;101266.06;3530351;82;98467;-87
2022/03/28 01:32:49;;;;;;;32.97;13.33;;;;;;;3.49;75.81;101267.79;3517291;82;98843;-87
2022/03/28 01:37:50;;;;;;;30.52;13.15;;;;;;;3.42;76.48;101257.09;3510550;83;98854;-87
2022/03/28 01:42:52;;;;;;;27.13;11.60;;;;;;;3.36;76.00;101256.97;3510848;83;98855;-87
2022/03/28 01:47:53;;;;;;;27.30;12.07;;;;;;;3.29;77.28;101249.80;3506172;83;98945;-88
2022/03/28 01:52:54;;;;;;;21.43;10.20;;;;;;;3.24;77.18;101243.12;3501572;83;98871;-86
2022/03/28 01:57:55;;;;;;;19.90;9.70;;;;;;;3.18;77.39;101230.75;3507170;83;31638;-87
2022/03/28 02:02:56;;;;;;;16.10;8.53;;;;;;;3.11;78.55;101228.45;3511678;83;98501;-87
2022/03/28 02:07:59;;;;;;;19.67;8.17;;;;;;;3.08;78.47;101218.20;3526654;83;98675;-87
2022/03/28 02:13:00;;;;;;;16.77;8.23;;;;;;;3.04;78.78;101217.20;3517988;82;98935;-87
2022/03/28 02:18:02;;;;;;;17.63;8.10;;;;;;;3.00;78.95;101214.06;3522793;83;98657;-88
2022/03/28 02:23:03;;;;;;;19.47;8.23;;;;;;;2.95;79.67;101212.81;3534807;82;98662;-87
2022/03/28 02:28:05;;;;;;;18.93;8.80;;;;;;;2.92;80.51;101207.44;3527405;82;31639;-88
2022/03/28 02:33:07;;;;;;;18.98;8.65;;;;;;;2.93;81.69;101202.24;3534100;82;98453;-87
2022/03/28 02:38:09;;;;;;;17.98;8.25;;;;;;;2.93;81.73;101200.88;3554647;82;98651;-88
2022/03/28 02:43:10;;;;;;;15.83;7.93;;;;;;;2.93;82.65;101204.96;3547457;82;98711;-88
2022/03/28 02:48:10;;;;;;;20.17;9.77;;;;;;;2.92;82.08;101204.72;3535915;82;98806;-87
2022/03/28 02:53:12;;;;;;;15.63;7.73;;;;;;;2.92;83.81;101199.83;3542083;82;98810;-88
2022/03/28 02:58:13;;;;;;;17.37;8.53;;;;;;;2.94;84.32;101191.61;3544912;82;31610;-88
2022/03/28 03:03:13;;;;;;;20.03;8.53;;;;;;;3.01;85.19;101183.03;3534408;82;98532;-88
2022/03/28 03:08:14;;;;;;;15.50;8.50;;;;;;;3.06;85.69;101176.91;3527776;82;98463;-87
2022/03/28 03:13:15;;;;;;;17.20;8.73;;;;;;;3.15;85.88;101163.36;3541052;81;98889;-88
2022/03/28 03:18:16;;;;;;;19.67;10.07;;;;;;;3.22;86.07;101155.59;3534631;82;98642;-87
2022/03/28 03:23:17;;;;;;;18.77;8.47;;;;;;;3.25;86.51;101163.94;3520256;82;98909;-87
2022/03/28 03:28:20;;;;;;;16.80;9.40;;;;;;;3.29;86.31;101154.02;3560619;82;35465;-88
2022/03/28 03:33:20;;;;;;;20.12;9.25;;;;;;;3.30;86.08;101164.35;3542293;82;98551;-87
2022/03/28 03:38:21;;;;;;;18.77;8.80;;;;;;;3.29;85.85;101156.73;3540277;82;98879;-88
2022/03/28 03:43:24;;;;;;;20.83;10.90;;;;;;;3.35;86.53;101152.80;3507552;83;99051;-88
2022/03/28 03:48:27;;;;;;;16.60;8.13;;;;;;;3.39;86.42;101157.05;3531122;82;98769;-88
2022/03/28 03:53:28;;;;;;;17.40;9.00;;;;;;;3.40;86.32;101158.66;3514013;82;98786;-88
2022/03/28 03:58:29;;;;;;;18.17;9.53;;;;;;;3.46;86.41;101151.96;3546810;82;34867;-88
2022/03/28 04:03:32;;;;;;;19.50;10.07;;;;;;;3.46;86.69;101145.16;3514968;82;98789;-87
2022/03/28 04:08:33;;;;;;;19.90;9.57;;;;;;;3.52;86.99;101146.63;3507864;83;98644;-88
2022/03/28 04:13:34;;;;;;;19.87;11.20;;;;;;;3.56;86.73;101134.02;3514064;81;98619;-88
2022/03/28 04:18:35;;;;;;;20.03;11.07;;;;;;;3.58;87.26;101134.48;3525348;82;98894;-88
2022/03/28 04:23:36;;;;;;;22.80;10.47;;;;;;;3.56;86.92;101126.62;3514945;82;99002;-86
2022/03/28 04:28:37;;;;;;;21.30;11.50;;;;;;;3.58;87.20;101122.24;3534298;82;34909;-88
2022/03/28 04:33:38;;;;;;;19.87;10.90;;;;;;;3.61;87.44;101114.83;3533750;82;98932;-88
2022/03/28 04:38:39;;;;;;;21.90;11.13;;;;;;;3.67;87.91;101112.20;3518697;82;98742;-87
2022/03/28 04:43:40;;;;;;;20.47;10.57;;;;;;;3.73;88.11;101113.12;3510052;82;99009;-87
2022/03/28 04:48:41;;;;;;;20.53;11.60;;;;;;;3.80;88.00;101118.09;3540138;82;98820;-88
2022/03/28 04:53:42;;;;;;;22.70;11.10;;;;;;;3.89;88.08;101112.13;3510749;83;98978;-88
2022/03/28 04:58:44;;;;;;;20.40;10.93;;;;;;;3.95;88.50;101107.59;3525475;83;36114;-87
2022/03/28 05:03:45;;;;;;;22.87;10.80;;;;;;;4.06;88.24;101107.53;3534419;82;98912;-87
2022/03/28 05:08:46;;;;;;;19.23;10.60;;;;;;;4.16;88.16;101107.78;3550408;82;98781;-87
2022/03/28 05:13:47;;;;;;;19.20;12.03;;;;;;;4.25;88.14;101110.76;3542066;82;98963;-85
2022/03/28 05:18:48;;;;;;;21.40;11.03;;;;;;;4.34;88.18;101109.41;3536363;82;98880;-86
2022/03/28 05:23:49;;;;;;;21.77;11.10;;;;;;;4.42;88.12;101099.88;3533881;82;98985;-86
2022/03/28 05:28:50;;;;;;;21.00;10.90;;;;;;;4.51;87.90;101101.23;3540271;82;32562;-86
2022/03/28 05:33:51;;;;;;;23.20;12.83;;;;;;;4.59;87.84;101093.06;3537623;82;99032;-89
2022/03/28 05:38:52;;;;;;;20.10;10.67;;;;;;;4.68;87.95;101086.23;3528706;82;98616;-90
2022/03/28 05:43:53;;;;;;;22.33;10.73;;;;;;;4.76;87.47;101072.60;3547662;82;98952;-90
2022/03/28 05:48:54;;;;;;;22.35;10.53;;;;;;;4.96;87.64;101084.21;3552798;82;98829;-90
2022/03/28 05:53:55;;;;;;;24.37;11.18;;;;;;;4.96;87.64;101084.21;3420520;85;98930;-88
2022/03/28 05:58:56;;;;;;;24.30;11.40;;;;;;;5.04;87.58;101075.23;3425815;85;99058;-89
2022/03/28 06:03:56;;;;;;;22.17;11.20;;;;;;;5.16;87.40;101082.72;3479387;83;98959;-89
2022/03/28 06:08:57;;;;;;;26.20;13.00;;;;;;;5.29;87.45;101076.28;3462239;84;98704;-88
2022/03/28 06:13:58;;;;;;;22.22;12.05;;;;;;;5.41;87.66;101070.94;3453285;84;98968;-87
2022/03/28 06:18:59;;;;;;;19.95;11.73;;;;;;;5.55;87.24;101072.32;3482634;85;98859;-89
2022/03/28 06:24:00;;;;;;;21.50;11.20;;;;;;;5.68;87.08;101078.11;3411508;84;98910;-89
2022/03/28 06:29:01;;;;;;;19.87;9.57;;;;;;;5.83;86.94;101074.08;3422106;86;98848;-88
2022/03/28 06:34:02;;;;;;;19.67;9.50;;;;;;;6.00;86.84;101078.08;3401974;85;98367;-85
2022/03/28 06:39:03;;;;;;;23.25;11.97;;;;;;;6.19;86.74;101056.56;3454959;84;98618;-85
2022/03/28 06:44:07;;;;;;;21.13;10.80;;;;;;;6.34;86.51;101049.14;3429939;84;98986;-85
2022/03/28 06:49:08;;;;;;;22.93;11.43;;;;;;;6.48;85.99;101046.36;3485945;84;98799;-85
2022/03/28 06:54:13;;;;;;;23.50;9.83;;;;;;;6.64;85.77;101039.14;3417734;84;98825;-88
2022/03/28 06:59:13;;;;;;;23.33;10.37;;;;;;;6.78;85.38;101038.30;3427851;85;98649;-85
2022/03/28 07:04:14;;;;;;;20.85;11.12;;;;;;;6.93;85.60;101037.64;3450678;84;98515;-85
2022/03/28 07:09:15;;;;;;;21.17;9.47;;;;;;;7.08;85.15;101030.16;3489757;84;98622;-84
2022/03/28 07:14:16;;;;;;;17.10;9.37;;;;;;;7.25;85.09;101023.11;3476646;83;98897;-86
2022/03/28 07:19:18;;;;;;;26.50;9.87;;;;;;;7.41;84.63;101024.64;3425596;85;98754;-86
2022/03/28 07:24:20;;;;;;;17.00;7.83;;;;;;;7.58;84.36;101017.56;3425352;84;98689;-86
2022/03/28 07:29:22;;;;;;;22.13;8.73;;;;;;;7.75;84.10;101000.89;3424586;85;97863;-85
2022/03/28 07:34:38;;;;;;;19.10;8.20;;;;;;;7.97;83.52;100996.29;3433296;85;98150;-83
2022/03/28 07:39:38;;;;;;;22.47;7.93;;;;;;;8.18;82.98;100996.92;3434873;83;98459;-84
2022/03/28 07:44:38;;;;;;;21.07;8.55;;;;;;;8.40;82.24;100985.46;3442608;84;98582;-87
2022/03/28 07:49:39;;;;;;;18.03;7.87;;;;;;;8.63;81.37;100984.56;3437832;85;98629;-85
2022/03/28 07:54:40;;;;;;;15.10;7.33;;;;;;;8.83;81.19;100975.29;3419835;85;98748;-84
2022/03/28 07:59:44;;;;;;;20.73;7.17;;;;;;;9.09;80.05;100966.55;3436657;85;98682;-85
2022/03/28 08:04:45;;;;;;;13.30;5.60;;;;;;;9.30;79.56;100963.77;3421130;85;98604;-84
2022/03/28 08:09:46;;;;;;;21.20;6.97;;;;;;;9.63;77.77;100967.48;3402713;85;98348;-86
2022/03/28 08:14:49;;;;;;;16.80;5.30;;;;;;;9.91;76.64;100957.12;3417922;85;98789;-86
2022/03/28 08:19:50;;;;;;;17.93;6.73;;;;;;;10.19;75.76;100941.29;3451627;84;98896;-85
2022/03/28 08:24:52;;;;;;;20.03;6.70;;;;;;;10.45;73.98;100940.02;3446167;84;98956;-86
2022/03/28 08:29:53;;;;;;;16.73;6.00;;;;;;;10.69;71.26;100938.34;3454034;84;98997;-82
2022/03/28 08:34:54;;;;;;;16.93;6.83;;;;;;;10.92;71.57;100937.77;3441021;84;99230;-82
2022/03/28 08:39:55;;;;;;;15.93;6.13;;;;;;;11.17;70.67;100927.39;3449781;84;32911;-84
2022/03/28 08:44:56;;;;;;;18.75;6.80;;;;;;;11.49;69.80;100926.50;3428444;84;98892;-82
2022/03/28 08:49:57;;;;;;;13.18;6.00;;;;;;;11.91;70.08;100927.97;3460907;84;98967;-85
2022/03/28 08:54:58;;;;;;;15.23;6.50;;;;;;;12.46;68.26;100914.66;3455820;83;99157;-83
2022/03/28 09:00:00;;;;;;;21.33;5.80;;;;;;;13.05;67.79;100910.92;3440921;85;98951;-85
2022/03/28 09:05:02;;;;;;;13.57;5.63;;;;;;;13.70;65.47;100909.84;3435451;84;98973;-84
2022/03/28 09:10:14;;;;;;;16.17;6.23;;;;;;;14.33;64.54;100896.32;3439637;85;33407;-86
2022/03/28 09:15:16;;;;;;;16.00;5.42;;;;;;;15.07;62.40;100896.45;3441504;85;98944;-84
2022/03/28 09:20:21;;;;;;;12.87;4.97;;;;;;;15.62;60.60;100884.55;3452360;84;99180;-83
2022/03/28 09:25:23;;;;;;;14.53;5.37;;;;;;;16.24;58.31;100882.74;3448128;85;99123;-85
2022/03/28 09:30:24;;;;;;;15.08;5.67;;;;;;;16.63;53.66;100871.45;3444834;85;99367;-83
2022/03/28 09:35:27;;;;;;;18.80;5.27;;;;;;;17.03;53.40;100874.92;3445746;85;99350;-84
2022/03/28 09:40:43;;;;;;;18.10;6.12;;;;;;;17.46;51.49;100867.81;3444286;85;26585;-84
2022/03/28 09:45:52;;;;;;;14.68;4.97;;;;;;;17.99;49.54;100854.88;3420719;85;98854;-83
2022/03/28 09:51:04;;;;;;;9.53;4.78;;;;;;;18.42;49.58;100842.62;3429122;85;99029;-85
2022/03/28 09:56:11;;;;;;;11.30;4.15;;;;;;;18.76;48.02;100833.53;3406943;85;98821;-86
2022/03/28 10:01:19;;;;;;;11.30;4.10;;;;;;;19.01;45.95;100820.75;3396158;85;99116;-84
2022/03/28 10:06:21;;;;;;;9.85;3.42;;;;;;;19.22;44.50;100820.41;3405952;85;99005;-88
2022/03/28 10:11:24;;;;;;;8.65;3.92;;;;;;;19.54;43.06;100811.44;3423847;85;98949;-88
2022/03/28 10:16:25;;;;;;;8.63;3.50;;;;;;;19.88;41.23;100795.18;3428553;85;98523;-85
2022/03/28 10:21:36;;;;;;;8.60;3.53;;;;;;;19.99;42.25;100778.38;3440621;85;98731;-85
2022/03/28 10:26:42;;;;;;;7.78;3.17;;;;;;;20.48;41.76;100777.28;3435295;85;98721;-84
2022/03/28 10:31:56;;;;;;;12.07;3.83;;;;;;;20.99;41.82;100777.83;3407245;85;98938;-83
2022/03/28 10:37:38;;;;;;;6.65;2.77;;;;;;;21.38;38.78;100764.20;3422408;85;99121;-83
2022/03/28 10:43:02;;;;;;;10.82;2.85;;;;;;;21.52;39.21;100764.58;3446137;84;99044;-88
2022/03/28 10:48:06;;;;;;;8.43;3.20;;;;;;;21.88;34.81;100758.77;3451642;84;99287;-86
2022/03/28 10:53:13;;;;;;;7.00;2.10;;;;;;;21.67;36.69;100750.95;3449963;84;99162;-82
2022/03/28 10:58:30;;;;;;;13.50;3.08;;;;;;;21.65;34.03;100738.02;3452433;85;25978;-85
2022/03/28 11:03:48;;;;;;;7.80;2.90;;;;;;;21.64;34.62;100726.02;3444410;84;99191;-87
2022/03/28 11:09:00;;;;;;;11.03;2.25;;;;;;;21.52;34.50;100719.00;3438530;84;97866;-85
2022/03/28 11:14:10;;;;;;;6.53;2.35;;;;;;;21.67;32.63;100709.73;3454375;84;99507;-84
2022/03/28 11:19:29;;;;;;;5.53;1.85;;;;;;;21.74;32.33;100694.77;3448193;85;98998;-82
2022/03/28 11:24:54;;;;;;;16.97;2.00;;;;;;;21.79;31.55;100685.17;3443933;84;99022;-85
2022/03/28 11:30:10;;;;;;;5.60;1.67;;;;;;;21.96;31.59;100677.47;3442050;85;99114;-82
2022/03/28 11:35:13;;;;;;;5.30;1.57;;;;;;;22.06;31.65;100661.70;3443511;84;99302;-82
2022/03/28 11:40:12;;;;;;;3.02;1.62;;;;;;;21.96;30.94;100650.84;3467780;83;25839;-83
2022/03/28 11:45:13;;;;;;;5.70;1.97;;;;;;;21.79;31.39;100645.18;3465819;84;98720;-82
2022/03/28 11:50:16;;;;;;;8.10;2.05;;;;;;;21.75;30.33;100630.48;3504607;83;98462;-85
2022/03/28 11:55:24;;;;;;;5.57;1.60;;;;;;;21.67;28.91;100632.69;3534283;83;98939;-85
2022/03/28 12:00:26;;;;;;;4.78;1.40;;;;;;;21.53;30.16;100613.51;3541218;83;98812;-85
2022/03/28 12:05:40;;;;;;;5.15;1.67;;;;;;;21.44;30.43;100610.60;3540011;83;98842;-86
2022/03/28 12:10:52;;;;;;;5.30;1.50;;;;;;;21.40;30.80;100607.12;3544619;83;26232;-86
2022/03/28 12:15:55;;;;;;;6.50;1.45;;;;;;;21.31;29.71;100585.98;3520146;83;98538;-84
2022/03/28 12:20:58;;;;;;;7.45;2.22;;;;;;;21.21;30.80;100576.52;3522624;83;98692;-82
2022/03/28 12:26:04;;;;;;;3.42;1.30;;;;;;;21.02;30.90;100556.48;3519759;83;98955;-83
2022/03/28 12:31:08;;;;;;;3.85;1.20;;;;;;;21.09;30.72;100553.48;3535298;83;98085;-84
2022/03/28 12:36:21;;;;;;;5.45;1.80;;;;;;;21.07;31.02;100539.14;3543585;83;98859;-84
2022/03/28 12:41:18;;;;;;;8.90;1.57;;;;;;;21.02;30.88;100532.69;3530140;83;98783;-83
2022/03/28 12:46:19;;;;;;;5.57;1.50;;;;;;;20.87;30.92;100516.14;3538096;82;98574;-84
2022/03/28 12:51:36;;;;;;;4.28;2.02;;;;;;;20.79;31.16;100516.16;3516226;83;98636;-81
2022/03/28 12:56:57;;;;;;;3.70;1.52;;;;;;;20.75;31.92;100490.30;3526257;82;98668;-83
2022/03/28 13:02:16;;;;;;;5.47;1.20;;;;;;;20.81;31.71;100496.31;3506476;82;99203;-85
2022/03/28 13:07:28;;;;;;;3.52;1.47;;;;;;;20.65;30.93;100485.20;3514575;82;98848;-85
2022/03/28 13:12:39;;;;;;;2.83;1.30;;;;;;;20.53;31.56;100483.16;3528359;81;99254;-84
2022/03/28 13:17:43;;;;;;;7.50;1.98;;;;;;;20.56;32.57;100469.70;3521507;82;98886;-84
2022/03/28 13:22:46;;;;;;;5.28;1.70;;;;;;;20.60;33.26;100470.98;3510854;82;99039;-83
2022/03/28 13:28:02;;;;;;;13.13;4.87;;;;;;;20.57;32.74;100456.48;3531920;82;98632;-85
2022/03/28 13:33:04;;;;;;;12.10;6.25;;;;;;;20.56;32.72;100457.11;3529341;82;99012;-84
2022/03/28 13:38:10;;;;;;;5.25;1.67;;;;;;;20.43;33.05;100447.13;3520522;82;99050;-86
2022/03/28 13:43:14;;;;;;;7.67;2.15;;;;;;;20.33;32.56;100439.82;3542614;81;98833;-85
2022/03/28 13:48:17;;;;;;;9.00;1.65;;;;;;;20.33;33.49;100427.23;3572777;82;98868;-82
2022/03/28 13:53:18;;;;;;;25.55;2.80;;;;;;;20.21;33.33;100423.16;3503737;82;98917;-83
2022/03/28 13:58:20;;;;;;;13.73;1.83;;;;;;;20.05;33.49;100420.39;3555122;82;25964;-84
2022/03/28 14:03:22;;;;;;;7.65;1.92;;;;;;;20.04;32.86;100413.84;3546101;82;98840;-83
2022/03/28 14:08:23;;;;;;;7.92;1.87;;;;;;;19.91;33.06;100398.45;3532746;82;98628;-84
2022/03/28 14:13:24;;;;;;;4.93;1.50;;;;;;;19.82;33.21;100390.51;3524019;82;98931;-82
2022/03/28 14:18:27;;;;;;;3.77;1.83;;;;;;;19.75;33.55;100392.10;3540123;82;98845;-83
2022/03/28 14:23:28;;;;;;;5.00;1.80;;;;;;;19.57;33.33;100381.39;3544809;82;98993;-84
2022/03/28 14:28:29;;;;;;;7.33;1.83;;;;;;;19.40;33.52;100366.52;3545390;82;26595;-83
2022/03/28 14:33:30;;;;;;;5.70;1.77;;;;;;;19.40;33.52;100366.52;3525563;82;99030;-82
2022/03/28 14:38:31;;;;;;;12.93;2.00;;;;;;;19.35;33.94;100353.09;3548516;82;98955;-86
2022/03/28 14:43:34;;;;;;;4.67;2.30;;;;;;;19.25;34.15;100354.14;3535659;82;99071;-84
2022/03/28 14:48:38;;;;;;;8.70;2.33;;;;;;;19.11;34.55;100348.28;3545013;82;98070;-85
2022/03/28 14:53:38;;;;;;;6.60;2.40;;;;;;;18.96;34.95;100341.47;3479492;83;98940;-84
2022/03/28 14:58:39;;;;;;;6.63;2.07;;;;;;;18.93;35.68;100327.62;3487154;84;25391;-87
2022/03/28 15:03:40;;;;;;;5.00;2.00;;;;;;;18.85;36.00;100317.86;3478991;84;98886;-87
2022/03/28 15:08:41;;;;;;;7.70;1.97;;;;;;;18.74;36.56;100319.50;3490596;84;97833;-85
2022/03/28 15:13:43;;;;;;;4.70;1.83;;;;;;;18.58;36.97;100308.95;3479861;83;98903;-87
2022/03/28 15:18:44;;;;;;;7.37;2.17;;;;;;;18.46;37.49;100301.25;3562140;82;99119;-88
2022/03/28 15:23:45;;;;;;;6.53;1.70;;;;;;;18.31;38.05;100296.58;3530007;82;99291;-92
2022/03/28 15:28:46;;;;;;;4.73;1.90;;;;;;;18.20;38.52;100291.08;3565886;82;33001;-87
2022/03/28 15:33:48;;;;;;;6.43;2.97;;;;;;;18.12;38.54;100286.27;3568754;82;98896;-86
2022/03/28 15:39:00;;;;;;;10.33;3.77;;;;;;;18.01;39.13;100277.95;3577498;82;98712;-88
2022/03/28 15:43:56;;;;;;;9.98;2.67;;;;;;;17.97;39.77;100283.61;3551392;82;99051;-85
2022/03/28 15:48:57;;;;;;;5.30;1.72;;;;;;;17.91;39.61;100269.22;3561645;82;98893;-87
2022/03/28 15:53:58;;;;;;;5.17;1.80;;;;;;;17.81;40.11;100268.83;3552674;82;98862;-85
2022/03/28 15:59:02;;;;;;;4.97;1.50;;;;;;;17.68;40.72;100259.56;3550181;82;99377;-84
2022/03/28 16:04:09;;;;;;;7.85;2.27;;;;;;;17.64;40.81;100253.28;3559197;82;98925;-85
2022/03/28 16:09:15;;;;;;;7.85;3.75;;;;;;;17.56;41.62;100250.48;3563375;82;98594;-86
2022/03/28 16:14:18;;;;;;;5.03;2.00;;;;;;;17.44;42.15;100253.28;3551422;82;98805;-85
2022/03/28 16:19:19;;;;;;;4.95;1.90;;;;;;;17.34;42.16;100247.91;3554412;82;98796;-86
2022/03/28 16:24:21;;;;;;;7.87;2.40;;;;;;;17.21;42.36;100238.00;3417109;84;98963;-85
2022/03/28 16:29:24;;;;;;;5.37;1.77;;;;;;;17.05;42.70;100239.92;3549957;82;98915;-84
2022/03/28 16:34:24;;;;;;;7.65;3.12;;;;;;;16.91;43.02;100232.62;3518265;82;98438;-83
2022/03/28 16:39:29;;;;;;;9.50;3.60;;;;;;;16.80;43.38;100236.19;3539042;82;98708;-85
2022/03/28 16:44:34;;;;;;;6.97;2.92;;;;;;;16.66;43.95;100230.86;3522858;82;98428;-84
2022/03/28 16:49:37;;;;;;;18.27;8.28;;;;;;;16.52;44.20;100221.34;3520851;82;98988;-84
2022/03/28 16:54:40;;;;;;;12.15;3.90;;;;;;;16.42;44.16;100224.31;3538130;82;99050;-84
2022/03/28 16:59:40;;;;;;;17.77;5.50;;;;;;;16.27;44.63;100215.39;3507248;82;99011;-84
2022/03/28 17:04:43;;;;;;;25.20;8.73;;;;;;;16.15;44.83;100216.56;3525079;82;98711;-83
2022/03/28 17:09:46;;;;;;;24.85;9.05;;;;;;;16.02;45.19;100214.19;3537873;82;99091;-82
2022/03/28 17:14:49;;;;;;;25.27;9.93;;;;;;;15.86;45.37;100208.47;3540622;81;99065;-82
2022/03/28 17:19:51;;;;;;;21.17;8.10;;;;;;;15.69;45.67;100204.72;3522196;82;99026;-81
2022/03/28 17:24:53;;;;;;;27.05;7.75;;;;;;;15.57;46.18;100203.09;3518218;82;99194;-80
2022/03/28 17:29:54;;;;;;;23.50;9.08;;;;;;;15.43;46.42;100205.44;3513235;82;99077;-82
2022/03/28 17:34:55;;;;;;;26.40;12.60;;;;;;;15.27;47.14;100203.05;3521685;82;98744;-81
2022/03/28 17:40:01;;;;;;;21.87;11.57;;;;;;;15.09;47.45;100203.85;3533053;82;99086;-83
2022/03/28 17:45:03;;;;;;;23.65;10.85;;;;;;;14.85;48.20;100200.13;3542363;82;99013;-82
2022/03/28 17:50:14;;;;;;;15.23;6.95;;;;;;;14.65;48.77;100206.05;3575132;82;99471;-81
2022/03/28 17:55:16;;;;;;;19.52;7.40;;;;;;;14.47;49.42;100203.24;3522462;82;99530;-82
2022/03/28 18:00:18;;;;;;;18.80;7.13;;;;;;;14.33;49.75;100207.52;3557441;82;99167;-82
2022/03/28 18:05:19;;;;;;;18.90;7.15;;;;;;;14.13;50.18;100205.06;3556803;82;98955;-82
2022/03/28 18:10:20;;;;;;;16.53;6.67;;;;;;;13.93;50.50;100208.94;3557498;82;34107;-81
2022/03/28 18:15:21;;;;;;;17.83;6.37;;;;;;;13.77;50.74;100210.61;3549907;82;98806;-81
2022/03/28 18:20:22;;;;;;;15.50;6.17;;;;;;;13.60;50.99;100213.67;3548456;82;99093;-81
2022/03/28 18:25:25;;;;;;;19.07;7.53;;;;;;;13.41;51.30;100218.89;3545373;82;99070;-82
2022/03/28 18:30:27;;;;;;;12.98;5.65;;;;;;;13.09;51.97;100213.44;3556036;82;99082;-81
2022/03/28 18:35:28;;;;;;;11.93;5.53;;;;;;;13.09;51.97;100213.44;3561592;82;99418;-82
2022/03/28 18:40:29;;;;;;;13.27;6.13;;;;;;;12.95;52.29;100210.69;3543793;82;33509;-82
2022/03/28 18:45:32;;;;;;;11.83;5.67;;;;;;;12.83;52.52;100210.31;3544835;82;98899;-82
2022/03/28 18:50:34;;;;;;;12.23;5.23;;;;;;;12.69;52.84;100211.70;3543329;81;98915;-82
2022/03/28 18:55:36;;;;;;;15.28;6.25;;;;;;;12.59;53.38;100208.38;3536911;81;99037;-82
2022/03/28 19:00:37;;;;;;;19.40;6.40;;;;;;;12.43;53.59;100215.66;3518701;82;99000;-82
2022/03/28 19:05:38;;;;;;;14.83;5.70;;;;;;;12.34;54.18;100218.05;3520664;82;99261;-82
2022/03/28 19:10:40;;;;;;;17.90;7.33;;;;;;;12.22;54.29;100221.77;3527124;82;33368;-81
2022/03/28 19:15:43;;;;;;;15.93;7.33;;;;;;;12.06;54.53;100220.78;3520016;82;98983;-82
2022/03/28 19:20:46;;;;;;;12.67;6.57;;;;;;;11.90;54.48;100212.08;3530282;82;99044;-82
2022/03/28 19:25:47;;;;;;;14.00;6.00;;;;;;;11.80;54.58;100217.55;3511443;82;99075;-83
2022/03/28 19:30:53;;;;;;;12.80;5.33;;;;;;;11.65;54.92;100209.83;3514070;80;99125;-81
2022/03/28 19:35:56;;;;;;;12.05;5.60;;;;;;;11.53;55.34;100213.48;3533970;82;99168;-84
2022/03/28 19:40:58;;;;;;;10.20;5.10;;;;;;;11.38;55.78;100207.14;3538021;82;26532;-81
2022/03/28 19:45:59;;;;;;;12.93;6.40;;;;;;;11.25;56.16;100207.28;3509823;82;98735;-80
2022/03/28 19:51:03;;;;;;;9.87;5.03;;;;;;;11.09;56.68;100205.44;3535943;82;98895;-82
2022/03/28 19:56:05;;;;;;;12.13;5.45;;;;;;;10.98;57.26;100207.34;3532027;82;98928;-82
2022/03/28 20:01:07;;;;;;;11.63;6.43;;;;;;;10.85;57.48;100197.80;3539039;81;99479;-82
2022/03/28 20:06:08;;;;;;;15.85;6.72;;;;;;;10.74;57.92;100205.81;3527484;82;99065;-82
2022/03/28 20:11:10;;;;;;;15.10;7.00;;;;;;;10.65;58.18;100206.72;3508408;82;99079;-82
2022/03/28 20:16:13;;;;;;;15.93;6.72;;;;;;;10.53;58.59;100205.65;3511799;82;98522;-82
2022/03/28 20:21:14;;;;;;;14.30;7.47;;;;;;;10.43;58.75;100199.47;3550795;82;98870;-83
2022/03/28 20:26:16;;;;;;;13.30;7.00;;;;;;;10.30;59.10;100192.09;3515827;82;99000;-83
2022/03/28 20:31:19;;;;;;;12.57;6.67;;;;;;;10.19;59.38;100185.72;3542399;82;99013;-83
2022/03/28 20:36:25;;;;;;;13.47;6.90;;;;;;;10.07;59.78;100182.45;3523863;82;98920;-84
2022/03/28 20:41:26;;;;;;;13.53;6.47;;;;;;;9.92;60.11;100181.51;3530352;82;99100;-83
2022/03/28 20:46:27;;;;;;;12.70;5.80;;;;;;;9.81;60.46;100177.86;3548786;82;98483;-83
2022/03/28 20:51:30;;;;;;;12.50;6.20;;;;;;;9.70;60.83;100179.72;3545798;80;97711;-82
2022/03/28 20:56:31;;;;;;;12.67;6.67;;;;;;;9.60;61.07;100179.02;3534697;82;98480;-84
2022/03/28 21:01:32;;;;;;;14.30;7.20;;;;;;;9.50;61.39;100179.71;3529297;82;98752;-81
2022/03/28 21:06:33;;;;;;;14.87;6.83;;;;;;;9.41;61.72;100183.89;3552952;82;98755;-83
2022/03/28 21:11:33;;;;;;;14.43;6.13;;;;;;;9.29;61.74;100183.58;3538639;81;98713;-84
2022/03/28 21:16:35;;;;;;;12.63;6.57;;;;;;;9.19;62.17;100175.19;3539109;82;32904;-84
2022/03/28 21:21:36;;;;;;;20.30;8.40;;;;;;;9.07;62.62;100183.67;3554701;82;98618;-84
2022/03/28 21:26:37;;;;;;;17.00;8.90;;;;;;;8.95;62.95;100186.66;3551715;82;98941;-83
2022/03/28 21:31:37;;;;;;;16.90;9.00;;;;;;;8.80;63.09;100183.50;3552392;82;99061;-83
2022/03/28 21:36:39;;;;;;;19.40;9.33;;;;;;;8.69;63.48;100177.88;3543043;81;98742;-84
2022/03/28 21:41:40;;;;;;;22.70;8.58;;;;;;;8.63;63.94;100174.44;3532711;82;98665;-84
2022/03/28 21:46:41;;;;;;;18.47;8.30;;;;;;;8.55;64.21;100165.31;3538102;82;31638;-84
2022/03/28 21:51:42;;;;;;;16.03;9.13;;;;;;;8.45;64.50;100166.53;3532857;82;98727;-83
2022/03/28 21:56:43;;;;;;;16.37;8.73;;;;;;;8.36;65.00;100170.11;3557928;82;98042;-83
2022/03/28 22:01:44;;;;;;;15.33;8.13;;;;;;;8.28;65.14;100158.83;3552810;82;98763;-84
2022/03/28 22:06:45;;;;;;;13.03;7.10;;;;;;;8.19;65.49;100151.40;3544856;82;98641;-85
2022/03/28 22:11:45;;;;;;;14.93;7.70;;;;;;;8.08;65.90;100151.20;3548038;82;98884;-84
2022/03/28 22:16:46;;;;;;;17.97;7.70;;;;;;;8.03;66.32;100144.70;3529853;82;31595;-84
2022/03/28 22:21:47;;;;;;;13.10;7.13;;;;;;;7.91;67.06;100124.91;3533208;82;98745;-84
2022/03/28 22:26:48;;;;;;;14.13;7.12;;;;;;;7.91;67.06;100124.91;3539272;82;98378;-84
2022/03/28 22:31:49;;;;;;;18.03;7.80;;;;;;;7.85;67.13;100118.92;3516412;82;98648;-84
2022/03/28 22:36:50;;;;;;;16.97;8.60;;;;;;;7.84;66.99;100120.09;3546478;82;98777;-84
2022/03/28 22:41:51;;;;;;;14.55;7.87;;;;;;;7.76;67.39;100126.62;3562051;82;98673;-84
2022/03/28 22:46:52;;;;;;;15.87;7.37;;;;;;;7.70;67.88;100126.67;3531582;82;25978;-85
2022/03/28 22:51:53;;;;;;;13.57;7.07;;;;;;;7.62;68.14;100129.66;3506055;82;98702;-84
2022/03/28 22:56:56;;;;;;;17.17;8.90;;;;;;;7.51;68.39;100134.95;3514120;83;98949;-84
2022/03/28 23:01:57;;;;;;;18.33;7.50;;;;;;;7.47;68.56;100137.42;3516608;83;99030;-85
2022/03/28 23:06:58;;;;;;;13.07;6.77;;;;;;;7.42;68.65;100124.80;3535912;82;98714;-84
2022/03/28 23:11:58;;;;;;;16.27;8.07;;;;;;;7.33;69.30;100122.09;3513196;81;98621;-84
2022/03/28 23:17:00;;;;;;;14.53;7.60;;;;;;;7.25;69.84;100122.52;3525594;82;34892;-85
2022/03/28 23:22:01;;;;;;;14.03;7.37;;;;;;;7.19;70.46;100122.61;3513534;82;98833;-83
2022/03/28 23:27:03;;;;;;;13.53;7.37;;;;;;;7.16;70.41;100118.44;3529529;82;98443;-84